Time;durP1;ratioP1;P1;durP2;ratioP2;P2;SDS_P1;SDS_P2;PMS_P1;PMS_P2;Temp;Humidity;BMP_temperature;BMP_pressure;BME280_temperature;BME280_humidity;BME280_pressure;Samples;Min_cycle;Max_cycle;Signal;HPM_P1;HPM_P2
2021/06/21 00:00:51;;;;;;;4.18;2.08;;;;;;;20.06;73.83;100588.22;4873283;28;102500;-61
2021/06/21 00:03:19;;;;;;;3.90;1.50;;;;;;;20.07;73.73;100592.59;4878978;28;102576;-60
2021/06/21 00:05:46;;;;;;;3.60;1.90;;;;;;;20.07;73.89;100589.81;4874807;28;102328;-61
2021/06/21 00:08:14;;;;;;;4.90;2.13;;;;;;;20.06;73.65;100587.41;4874196;28;103990;-60
2021/06/21 00:10:53;;;;;;;5.65;2.10;;;;;;;20.07;73.81;100586.25;4871489;28;102056;-60
2021/06/21 00:13:19;;;;;;;5.13;2.13;;;;;;;20.07;74.11;100598.13;4868194;28;102173;-60
2021/06/21 00:15:48;;;;;;;;;;;;;;;20.06;73.93;100601.22;4872982;28;102548;-61
2021/06/21 00:18:15;;;;;;;7.82;2.60;;;;;;;20.06;73.88;100590.19;4873475;28;104067;-60
2021/06/21 00:20:46;;;;;;;6.97;1.83;;;;;;;20.06;73.86;100590.19;4872878;28;102269;-61
2021/06/21 00:23:13;;;;;;;5.55;2.10;;;;;;;20.05;73.69;100596.81;4870915;28;102233;-61
2021/06/21 00:25:40;;;;;;;3.85;1.92;;;;;;;20.05;73.95;100588.53;4875140;28;102462;-61
2021/06/21 00:28:06;;;;;;;3.88;2.25;;;;;;;20.05;73.81;100589.38;4864285;28;104053;-61
2021/06/21 00:30:33;;;;;;;8.35;1.98;;;;;;;20.05;73.91;100594.06;4866466;28;102168;-61
2021/06/21 00:33:00;;;;;;;4.40;2.38;;;;;;;20.05;73.86;100588.53;4873066;28;102312;-61
2021/06/21 00:35:27;;;;;;;5.13;1.98;;;;;;;20.06;73.94;100595.69;4875013;28;102578;-61
2021/06/21 00:37:57;;;;;;;4.90;2.22;;;;;;;20.06;73.95;100590.19;4886861;28;104249;-61
2021/06/21 00:40:24;;;;;;;3.85;1.55;;;;;;;20.06;73.70;100584.66;4873499;28;102761;-61
2021/06/21 00:42:51;;;;;;;3.95;1.83;;;;;;;20.04;73.65;100582.22;4873223;28;102708;-61
2021/06/21 00:45:20;;;;;;;8.65;2.08;;;;;;;20.04;73.78;100582.22;4873060;28;102183;-61
2021/06/21 00:47:47;;;;;;;4.95;2.00;;;;;;;20.04;73.76;100589.69;4878309;28;103860;-61
2021/06/21 00:50:14;;;;;;;4.05;1.98;;;;;;;20.04;73.71;100587.75;4873020;28;102280;-61
2021/06/21 00:52:42;;;;;;;6.63;2.30;;;;;;;20.04;73.84;100586.94;4875634;28;102639;-61
2021/06/21 00:55:12;;;;;;;4.72;2.10;;;;;;;20.04;74.02;100592.47;4872434;28;102774;-60
2021/06/21 00:57:39;;;;;;;3.70;1.98;;;;;;;20.02;73.79;100600.28;4872180;28;103883;-61
2021/06/21 01:00:08;;;;;;;5.03;2.15;;;;;;;20.02;73.85;100600.28;4871227;28;102253;-60
2021/06/21 01:02:35;;;;;;;3.50;1.90;;;;;;;20.03;73.73;100601.91;4872735;28;102211;-60
2021/06/21 01:05:04;;;;;;;3.35;1.85;;;;;;;20.02;73.80;100594.78;4876553;28;102254;-60
2021/06/21 01:07:31;;;;;;;;;;;;;;;20.04;73.62;100606.28;4873603;28;102738;-61
2021/06/21 01:09:57;;;;;;;3.05;1.67;;;;;;;20.03;73.60;100599.13;4871417;28;103369;-60
2021/06/21 01:12:40;;;;;;;4.55;2.10;;;;;;;20.04;73.73;100600.75;4872257;28;102103;-60
2021/06/21 01:15:08;;;;;;;4.90;1.98;;;;;;;20.06;73.74;100598.47;4872410;28;102540;-60
2021/06/21 01:17:41;;;;;;;6.50;2.40;;;;;;;20.02;73.79;100590.03;4871444;28;103542;-60
2021/06/21 01:20:27;;;;;;;9.85;2.03;;;;;;;20.03;73.54;100597.19;4871676;28;102507;-60
2021/06/21 01:23:25;;;;;;;6.53;2.00;;;;;;;20.03;73.80;100599.13;4868078;28;102398;-60
2021/06/21 01:25:56;;;;;;;6.03;2.17;;;;;;;20.03;73.58;100602.69;4869688;28;102465;-60
2021/06/21 01:28:43;;;;;;;4.03;2.03;;;;;;;20.02;73.86;100600.28;4871335;28;103908;-60
2021/06/21 01:31:13;;;;;;;7.85;2.25;;;;;;;20.03;74.01;100601.91;4872279;28;102468;-60
2021/06/21 01:33:42;;;;;;;4.88;2.10;;;;;;;20.04;73.97;100609.03;4872135;28;102167;-60
2021/06/21 01:36:13;;;;;;;4.32;1.60;;;;;;;20.05;74.05;100596.81;4869685;28;102651;-60
2021/06/21 01:38:42;;;;;;;4.10;2.10;;;;;;;20.03;73.69;100599.94;4870775;28;103981;-60
2021/06/21 01:41:15;;;;;;;6.95;2.53;;;;;;;20.03;73.56;100596.38;4873216;28;102245;-60
2021/06/21 01:43:44;;;;;;;8.25;2.45;;;;;;;20.02;74.03;100597.53;4871570;28;102585;-60
2021/06/21 01:46:16;;;;;;;6.30;2.20;;;;;;;20.02;73.67;100605.81;4872144;28;102247;-60
2021/06/21 01:48:46;;;;;;;8.07;2.63;;;;;;;20.02;73.97;100603.84;4870190;28;103951;-60
2021/06/21 01:51:14;;;;;;;4.78;2.20;;;;;;;20.02;73.56;100600.28;4866429;28;102125;-60
2021/06/21 01:53:44;;;;;;;4.35;1.75;;;;;;;20.02;73.56;100608.59;4873051;28;102338;-60
2021/06/21 01:56:16;;;;;;;6.97;2.50;;;;;;;20.02;73.74;100605.81;4872529;28;102613;-60
2021/06/21 01:58:43;;;;;;;7.00;2.25;;;;;;;20.01;74.00;100604.97;4871726;28;104101;-61
2021/06/21 02:01:15;;;;;;;4.70;1.80;;;;;;;20.03;73.94;100607.44;4872210;28;102105;-60
2021/06/21 02:03:46;;;;;;;4.03;1.73;;;;;;;20.04;73.64;100614.56;4871731;28;102354;-60
2021/06/21 02:06:15;;;;;;;6.75;2.13;;;;;;;20.02;74.05;100608.59;4873866;28;102354;-61
2021/06/21 02:08:42;;;;;;;7.97;2.10;;;;;;;20.02;73.70;100616.88;4861836;28;103843;-61
2021/06/21 02:11:10;;;;;;;6.80;2.00;;;;;;;20.04;73.54;100620.09;4871594;28;102561;-60
2021/06/21 02:13:38;;;;;;;3.40;1.80;;;;;;;20.01;73.73;100618.00;4872623;28;103080;-60
2021/06/21 02:16:06;;;;;;;3.23;1.70;;;;;;;20.01;73.93;100629.03;4873165;28;102281;-60
2021/06/21 02:18:34;;;;;;;5.63;2.00;;;;;;;20.01;73.96;100646.41;4871033;28;103898;-60
2021/06/21 02:21:04;;;;;;;3.15;1.88;;;;;;;20.01;73.79;100640.09;4871202;28;102423;-60
2021/06/21 02:23:31;;;;;;;4.65;1.90;;;;;;;20.02;73.78;100650.00;4872060;28;102989;-60
2021/06/21 02:25:58;;;;;;;4.05;1.98;;;;;;;20.02;73.60;100650.00;4872962;28;102452;-60
2021/06/21 02:28:27;;;;;;;2.80;1.85;;;;;;;20.02;73.74;100650.00;4871291;28;103007;-61
2021/06/21 02:30:54;;;;;;;2.75;2.10;;;;;;;20.02;73.91;100650.00;4864071;28;102650;-60
2021/06/21 02:33:21;;;;;;;3.97;2.13;;;;;;;20.02;73.87;100647.25;4875481;28;102255;-60
2021/06/21 02:35:48;;;;;;;3.70;1.98;;;;;;;20.03;73.79;100651.63;4872976;28;102566;-61
2021/06/21 02:38:17;;;;;;;4.57;1.95;;;;;;;20.02;74.03;100650.00;4872294;28;104267;-60
2021/06/21 02:40:43;;;;;;;2.92;1.70;;;;;;;20.01;73.79;100651.13;4874023;28;101820;-61
2021/06/21 02:43:11;;;;;;;4.60;2.08;;;;;;;20.03;73.59;100660.72;4872920;28;103626;-60
2021/06/21 02:45:37;;;;;;;3.33;1.77;;;;;;;20.03;73.94;100654.38;4875247;28;102845;-60
2021/06/21 02:48:06;;;;;;;3.42;1.65;;;;;;;20.01;73.71;100654.69;4880218;28;102751;-60
2021/06/21 02:50:34;;;;;;;4.05;1.88;;;;;;;20.02;74.13;100666.59;4875121;28;102042;-60
2021/06/21 02:53:08;;;;;;;4.53;1.50;;;;;;;20.02;73.77;100672.13;4876285;28;102139;-60
2021/06/21 02:55:44;;;;;;;3.40;1.40;;;;;;;20.01;74.00;100670.47;4878132;28;102143;-60
2021/06/21 02:58:17;;;;;;;2.55;1.70;;;;;;;20.01;73.58;100665.75;4872736;28;102817;-60
2021/06/21 03:00:49;;;;;;;6.00;1.58;;;;;;;20.03;73.71;100669.00;4874878;28;102342;-60
2021/06/21 03:03:18;;;;;;;2.63;1.52;;;;;;;20.02;73.76;100663.81;4874099;28;102194;-60
2021/06/21 03:05:48;;;;;;;3.15;1.80;;;;;;;20.01;73.89;100659.41;4876663;28;102644;-60
2021/06/21 03:08:15;;;;;;;4.40;1.52;;;;;;;20.01;73.91;100671.28;4873176;28;103999;-60
2021/06/21 03:10:45;;;;;;;4.28;1.65;;;;;;;20.02;73.70;100655.53;4868542;28;102071;-60
2021/06/21 03:13:12;;;;;;;4.20;1.65;;;;;;;20.00;73.99;100655.06;4876498;28;103492;-60
2021/06/21 03:15:39;;;;;;;2.80;1.53;;;;;;;20.01;74.00;100659.41;4874991;28;102882;-60
2021/06/21 03:18:18;;;;;;;3.25;1.90;;;;;;;20.00;73.99;100663.34;4874165;28;103917;-60
2021/06/21 03:20:46;;;;;;;;;;;;;;;20.00;74.00;100655.84;4873522;28;102202;-64
2021/06/21 03:23:13;;;;;;;2.47;1.48;;;;;;;20.01;73.91;100659.41;4873610;28;102834;-60
2021/06/21 03:25:39;;;;;;;3.22;1.73;;;;;;;20.01;73.98;100651.13;4876309;28;103063;-61
2021/06/21 03:28:10;;;;;;;4.47;1.80;;;;;;;20.03;73.97;100657.16;4873271;28;104967;-61
2021/06/21 03:30:41;;;;;;;4.80;1.27;;;;;;;20.02;74.11;100661.88;4872528;28;102605;-61
2021/06/21 03:33:09;;;;;;;5.28;1.75;;;;;;;20.03;73.93;100651.63;4874104;28;102702;-61
2021/06/21 03:35:36;;;;;;;2.08;1.45;;;;;;;20.04;73.81;100656.00;4876160;28;102585;-61
2021/06/21 03:38:10;;;;;;;3.17;1.50;;;;;;;20.03;73.93;100652.44;4875422;28;103894;-60
2021/06/21 03:40:36;;;;;;;3.17;1.60;;;;;;;20.05;73.93;100660.38;4873474;28;102621;-60
2021/06/21 03:43:03;;;;;;;4.45;1.65;;;;;;;20.04;74.04;100654.03;4873518;28;102069;-60
2021/06/21 03:45:31;;;;;;;2.67;1.40;;;;;;;20.05;73.72;100661.19;4874904;28;102370;-60
2021/06/21 03:47:58;;;;;;;2.10;1.20;;;;;;;20.06;74.20;100662.00;4873814;28;104079;-60
2021/06/21 03:50:24;;;;;;;3.55;1.40;;;;;;;20.07;73.68;100664.41;4888950;28;102191;-60
2021/06/21 03:52:50;;;;;;;2.58;1.55;;;;;;;20.06;73.72;100673.84;4874811;28;102712;-60
2021/06/21 03:55:17;;;;;;;3.10;1.25;;;;;;;20.07;73.93;100663.63;4874643;28;102348;-60
2021/06/21 03:57:45;;;;;;;2.72;1.13;;;;;;;20.07;73.84;100666.38;4874180;28;103977;-60
2021/06/21 04:00:15;;;;;;;2.42;1.52;;;;;;;20.08;73.96;100670.75;4878663;28;102268;-60
2021/06/21 04:02:43;;;;;;;2.22;1.13;;;;;;;20.08;73.69;100676.28;4873221;28;102125;-60
2021/06/21 04:05:10;;;;;;;1.80;1.00;;;;;;;20.08;74.13;100677.06;4875497;28;102410;-60
2021/06/21 04:07:37;;;;;;;2.28;1.35;;;;;;;20.08;73.65;100682.59;4873268;28;103908;-60
2021/06/21 04:10:04;;;;;;;2.40;1.38;;;;;;;20.09;73.98;100677.91;4874609;28;102476;-60
2021/06/21 04:12:31;;;;;;;2.33;1.55;;;;;;;20.10;73.98;100682.28;4873272;28;102541;-60
2021/06/21 04:14:58;;;;;;;1.90;1.35;;;;;;;20.11;73.72;100683.88;4874474;28;102323;-60
2021/06/21 04:17:24;;;;;;;1.98;1.10;;;;;;;20.10;73.80;100688.59;4873991;28;103737;-60
2021/06/21 04:19:52;;;;;;;1.45;1.15;;;;;;;20.10;73.88;100674.81;4873731;28;102379;-60
2021/06/21 04:22:19;;;;;;;1.70;1.00;;;;;;;20.11;73.75;100670.06;4873372;28;102264;-60
2021/06/21 04:24:45;;;;;;;1.55;1.20;;;;;;;20.11;73.78;100672.84;4874429;28;102481;-60
2021/06/21 04:27:13;;;;;;;1.23;0.95;;;;;;;20.12;73.84;100688.25;4874422;28;103406;-60
2021/06/21 04:29:39;;;;;;;1.45;1.20;;;;;;;20.13;73.90;100678.84;4873971;28;102557;-60
2021/06/21 04:32:07;;;;;;;2.08;1.10;;;;;;;20.13;73.78;100689.91;4872499;28;102530;-61
2021/06/21 04:34:33;;;;;;;1.52;1.30;;;;;;;20.13;73.59;100690.72;4874603;28;103096;-60
2021/06/21 04:37:01;;;;;;;2.03;1.25;;;;;;;20.14;73.53;100694.28;4871756;28;104009;-61
2021/06/21 04:39:27;;;;;;;2.72;1.33;;;;;;;20.13;73.80;100676.09;4872183;28;102538;-60
2021/06/21 04:41:54;;;;;;;1.17;1.08;;;;;;;20.14;73.47;100692.31;4878893;28;102434;-60
2021/06/21 04:44:21;;;;;;;2.05;1.33;;;;;;;20.15;73.80;100690.34;4875427;28;102227;-60
2021/06/21 04:46:47;;;;;;;1.98;1.27;;;;;;;20.15;73.53;100690.34;4868639;28;103856;-66
2021/06/21 04:49:14;;;;;;;2.15;1.38;;;;;;;20.16;73.48;100694.75;4871751;28;103001;-60
2021/06/21 04:51:41;;;;;;;1.73;1.17;;;;;;;20.14;73.68;100686.00;4873228;28;102369;-60
2021/06/21 04:54:10;;;;;;;2.45;1.30;;;;;;;20.15;73.80;100682.06;4877401;28;102140;-60
2021/06/21 04:56:37;;;;;;;1.55;1.20;;;;;;;20.17;73.68;100693.59;4872406;28;103933;-60
2021/06/21 04:59:04;;;;;;;1.48;1.17;;;;;;;20.16;73.80;100689.22;4873638;28;102247;-60
2021/06/21 05:01:31;;;;;;;4.20;1.10;;;;;;;20.17;73.78;100685.31;4866152;28;102283;-61
2021/06/21 05:04:00;;;;;;;1.73;1.23;;;;;;;20.15;73.68;100699.44;4874064;28;102172;-60
2021/06/21 05:06:27;;;;;;;2.38;1.13;;;;;;;20.17;73.57;100696.38;4872953;28;104075;-60
2021/06/21 05:08:55;;;;;;;2.42;1.48;;;;;;;20.16;73.67;100711.34;4873244;28;102062;-60
2021/06/21 05:11:23;;;;;;;1.27;1.10;;;;;;;20.17;73.51;100707.41;4871667;28;103986;-60
2021/06/21 05:13:50;;;;;;;2.33;1.30;;;;;;;20.17;73.54;100704.66;4865968;28;102196;-60
2021/06/21 05:16:16;;;;;;;1.67;1.10;;;;;;;20.19;73.62;100702.34;4872529;28;103882;-60
2021/06/21 05:18:54;;;;;;;6.07;1.85;;;;;;;20.17;73.64;100702.69;4873211;28;102432;-60
2021/06/21 05:21:21;;;;;;;1.83;1.00;;;;;;;20.19;73.33;100704.31;4872160;28;102024;-60
2021/06/21 05:23:47;;;;;;;1.27;1.17;;;;;;;20.19;73.41;100699.59;4874087;28;102299;-60
2021/06/21 05:26:14;;;;;;;1.55;1.17;;;;;;;20.19;73.41;100710.63;4871944;28;102738;-60
2021/06/21 05:28:42;;;;;;;1.77;1.38;;;;;;;20.21;74.08;100713.09;4874280;28;102725;-61
2021/06/21 05:31:09;;;;;;;1.73;1.40;;;;;;;20.23;73.49;100717.13;4871502;28;102201;-61
2021/06/21 05:33:35;;;;;;;1.52;1.40;;;;;;;20.23;73.45;100716.31;4874366;28;102507;-60
2021/06/21 05:36:02;;;;;;;4.72;1.50;;;;;;;20.23;73.50;100714.38;4871493;28;104164;-60
2021/06/21 05:38:29;;;;;;;1.88;1.20;;;;;;;20.25;73.55;100711.25;4874165;28;102144;-60
2021/06/21 05:40:55;;;;;;;3.63;0.98;;;;;;;20.24;73.52;100718.75;4871691;28;102407;-60
2021/06/21 05:43:22;;;;;;;1.77;1.02;;;;;;;20.25;73.46;100725.88;4872972;28;102203;-61
2021/06/21 05:45:50;;;;;;;3.35;1.33;;;;;;;20.25;73.44;100720.34;4869456;28;103819;-61
2021/06/21 05:48:17;;;;;;;4.90;1.50;;;;;;;20.26;73.55;100719.19;4873041;28;102322;-61
2021/06/21 05:50:45;;;;;;;1.85;1.10;;;;;;;20.29;73.61;100728.78;4870684;28;102461;-60
2021/06/21 05:53:11;;;;;;;1.77;1.05;;;;;;;20.27;73.33;100723.59;4872286;28;104301;-60
2021/06/21 05:55:38;;;;;;;2.38;1.30;;;;;;;20.27;73.35;100729.13;4869295;28;103855;-60
2021/06/21 05:58:04;;;;;;;1.63;1.30;;;;;;;20.27;73.21;100723.59;4870708;28;102568;-61
2021/06/21 06:00:31;;;;;;;2.33;1.30;;;;;;;20.27;73.50;100729.13;4870463;28;102715;-61
2021/06/21 06:02:59;;;;;;;2.75;1.23;;;;;;;20.28;73.38;100729.94;4872777;28;102298;-60
2021/06/21 06:05:26;;;;;;;1.50;1.20;;;;;;;20.28;73.39;100729.94;4872111;28;104288;-60
2021/06/21 06:07:53;;;;;;;3.10;1.58;;;;;;;20.28;73.42;100714.16;4873379;28;102956;-60
2021/06/21 06:10:20;;;;;;;2.70;1.35;;;;;;;20.28;73.41;100724.41;4871596;28;102133;-61
2021/06/21 06:12:46;;;;;;;2.30;1.30;;;;;;;20.29;73.37;100726.03;4873128;28;102226;-60
2021/06/21 06:15:14;;;;;;;2.47;1.60;;;;;;;20.26;73.30;100721.97;4870606;28;103996;-60
2021/06/21 06:17:41;;;;;;;3.35;1.80;;;;;;;20.28;73.60;100718.88;4872500;28;102537;-60
2021/06/21 06:20:11;;;;;;;4.03;1.60;;;;;;;20.29;73.53;100721.28;4872173;28;102575;-61
2021/06/21 06:22:37;;;;;;;3.70;1.30;;;;;;;20.29;73.46;100715.78;4868017;28;102871;-60
2021/06/21 06:25:05;;;;;;;2.97;1.75;;;;;;;20.31;73.42;100720.97;4869979;28;104935;-61
2021/06/21 06:27:32;;;;;;;2.95;1.70;;;;;;;20.32;73.51;100725.34;4872941;28;101938;-60
2021/06/21 06:29:59;;;;;;;4.88;2.00;;;;;;;20.31;73.32;100718.22;4871605;28;102559;-60
2021/06/21 06:32:25;;;;;;;4.15;2.40;;;;;;;20.33;73.51;100708.41;4871989;28;102648;-61
2021/06/21 06:34:52;;;;;;;4.82;2.35;;;;;;;20.34;73.50;100706.47;4865951;28;103933;-60
2021/06/21 06:37:20;;;;;;;3.40;2.55;;;;;;;20.33;73.42;100704.84;4871445;28;102492;-60
2021/06/21 06:39:48;;;;;;;3.50;1.80;;;;;;;20.33;73.53;100699.31;4871528;28;102342;-62
2021/06/21 06:42:15;;;;;;;6.80;1.90;;;;;;;20.33;73.40;100700.13;4870460;28;102343;-61
2021/06/21 06:44:42;;;;;;;3.75;2.15;;;;;;;20.33;73.60;100697.38;4868847;28;104847;-61
2021/06/21 06:47:08;;;;;;;7.35;2.42;;;;;;;20.34;73.26;100704.53;4870960;28;102363;-61
2021/06/21 06:49:36;;;;;;;4.55;2.00;;;;;;;20.36;73.42;100709.72;4871642;28;102419;-60
2021/06/21 06:52:03;;;;;;;2.63;1.90;;;;;;;20.38;73.00;100711.00;4870626;28;102556;-61
2021/06/21 06:56:58;;;;;;;7.65;2.92;;;;;;;20.36;73.49;100696.69;4872216;28;104011;-61
2021/06/21 06:57:20;;;;;;;5.85;2.50;;;;;;;20.36;73.25;100704.97;4872424;28;102199;-61
2021/06/21 06:59:47;;;;;;;4.65;2.10;;;;;;;20.37;73.44;100711.31;4871089;28;102382;-61
2021/06/21 07:02:21;;;;;;;5.97;2.60;;;;;;;20.39;73.45;100714.56;4870476;28;103083;-61
2021/06/21 07:04:49;;;;;;;7.20;2.38;;;;;;;20.40;73.17;100713.41;4871141;28;104023;-61
2021/06/21 07:07:17;;;;;;;5.47;3.13;;;;;;;20.40;73.29;100716.19;4871680;28;102322;-60
2021/06/21 07:09:45;;;;;;;5.50;2.72;;;;;;;20.42;73.40;100707.56;4872081;28;102538;-61
2021/06/21 07:12:12;;;;;;;4.47;2.30;;;;;;;20.43;73.04;100709.97;4873084;28;102236;-61
2021/06/21 07:14:40;;;;;;;7.32;2.97;;;;;;;20.45;73.14;100712.38;4880677;28;104047;-61
2021/06/21 07:17:07;;;;;;;10.15;2.90;;;;;;;20.48;73.42;100711.72;4871475;28;103415;-61
2021/06/21 07:19:33;;;;;;;6.18;2.30;;;;;;;20.49;73.34;100713.34;4865493;28;102527;-61
2021/06/21 07:22:01;;;;;;;9.13;3.03;;;;;;;20.52;73.10;100718.22;4872447;28;102624;-61
2021/06/21 07:24:28;;;;;;;7.73;2.90;;;;;;;20.53;73.19;100725.38;4872792;28;103757;-61
2021/06/21 07:26:56;;;;;;;6.70;2.90;;;;;;;20.53;73.18;100730.91;4866134;28;102102;-61
2021/06/21 07:29:23;;;;;;;6.45;2.78;;;;;;;20.55;73.27;100734.13;4849372;28;102687;-63
2021/06/21 07:31:50;;;;;;;7.95;3.15;;;;;;;20.56;73.33;100724.72;4870674;28;102843;-61
2021/06/21 07:34:16;;;;;;;9.00;3.08;;;;;;;20.57;73.48;100726.31;4870554;28;104039;-61
2021/06/21 07:36:43;;;;;;;7.18;2.97;;;;;;;20.56;73.24;100731.03;4870956;28;102400;-61
2021/06/21 07:39:10;;;;;;;7.35;3.05;;;;;;;20.59;73.07;100740.59;4874595;28;102223;-61
2021/06/21 07:41:37;;;;;;;7.30;3.28;;;;;;;20.60;73.27;100731.19;4871233;28;102325;-61
2021/06/21 07:44:05;;;;;;;10.48;3.47;;;;;;;20.60;73.06;100731.19;4873377;28;104022;-61
2021/06/21 07:46:32;;;;;;;7.07;2.83;;;;;;;20.60;73.22;100722.88;4872682;28;102058;-61
2021/06/21 07:48:59;;;;;;;5.75;3.13;;;;;;;20.63;73.30;100736.03;4874102;28;102260;-61
2021/06/21 07:51:26;;;;;;;7.00;2.88;;;;;;;20.64;73.33;100727.38;4870165;28;103409;-61
2021/06/21 07:53:53;;;;;;;6.97;3.17;;;;;;;20.65;73.10;100736.47;4871006;28;103885;-61
2021/06/21 07:56:22;;;;;;;5.20;3.07;;;;;;;20.68;73.20;100735.00;4872235;28;102150;-61
2021/06/21 07:58:50;;;;;;;6.40;2.88;;;;;;;20.67;73.25;100731.44;4872860;28;102715;-61
2021/06/21 08:01:18;;;;;;;6.15;3.65;;;;;;;20.67;73.43;100725.91;4873431;28;103932;-61
2021/06/21 08:03:45;;;;;;;9.32;3.15;;;;;;;20.67;73.35;100731.44;4871109;28;103984;-61
2021/06/21 08:06:12;;;;;;;7.90;3.65;;;;;;;20.69;73.18;100733.84;4870357;28;102313;-61
2021/06/21 08:08:42;;;;;;;7.53;3.33;;;;;;;20.70;73.23;100739.06;4874641;28;102856;-61
2021/06/21 08:11:09;;;;;;;7.93;3.30;;;;;;;20.70;73.20;100733.53;4873314;28;102834;-61
2021/06/21 08:13:39;;;;;;;8.38;4.55;;;;;;;20.71;73.50;100732.38;4884850;28;103936;-61
2021/06/21 08:16:06;;;;;;;10.07;4.13;;;;;;;20.74;73.92;100733.66;4864690;28;102294;-62
2021/06/21 08:18:34;;;;;;;9.68;3.67;;;;;;;20.74;73.46;100731.69;4873970;28;102423;-62
2021/06/21 08:21:01;;;;;;;12.25;4.55;;;;;;;20.75;73.56;100730.53;4888424;28;102571;-61
2021/06/21 08:23:29;;;;;;;11.15;4.50;;;;;;;20.78;73.62;100732.63;4873840;28;104646;-61
2021/06/21 08:25:56;;;;;;;15.68;4.75;;;;;;;20.80;73.52;100735.03;4867862;28;102794;-61
2021/06/21 08:28:23;;;;;;;9.90;4.85;;;;;;;20.80;73.59;100729.50;4870603;28;102090;-61
2021/06/21 08:30:50;;;;;;;9.02;4.70;;;;;;;20.81;73.70;100731.97;4871902;28;103538;-61
2021/06/21 08:33:16;;;;;;;11.90;4.57;;;;;;;20.82;73.58;100743.81;4866356;28;103963;-61
2021/06/21 08:35:44;;;;;;;10.80;4.70;;;;;;;20.82;73.60;100741.06;4873340;28;102554;-61
2021/06/21 08:38:10;;;;;;;11.73;5.07;;;;;;;20.83;73.63;100750.97;4872888;28;102517;-61
2021/06/21 08:40:37;;;;;;;18.65;5.15;;;;;;;20.84;73.44;100753.41;4871147;28;102236;-61
2021/06/21 08:43:04;;;;;;;11.30;5.13;;;;;;;20.84;73.40;100752.56;4882218;28;103887;-61
2021/06/21 08:45:33;;;;;;;14.57;4.75;;;;;;;20.85;73.56;100743.16;4872674;28;102133;-61
2021/06/21 08:48:00;;;;;;;8.02;4.15;;;;;;;20.84;73.38;100753.41;4887639;28;102064;-61
2021/06/21 08:50:28;;;;;;;9.77;4.60;;;;;;;20.83;73.29;100760.06;4881172;28;102758;-61
2021/06/21 08:52:58;;;;;;;12.40;5.03;;;;;;;20.82;73.26;100755.69;4874454;28;103612;-61
2021/06/21 08:55:25;;;;;;;10.05;4.22;;;;;;;20.82;73.18;100750.16;4875039;28;102721;-61
2021/06/21 08:57:52;;;;;;;11.27;5.00;;;;;;;20.83;73.34;100751.78;4880234;28;102606;-61
2021/06/21 09:00:20;;;;;;;11.07;4.82;;;;;;;20.82;73.37;100752.94;4875604;28;102480;-61
2021/06/21 09:02:47;;;;;;;10.93;4.70;;;;;;;20.83;73.59;100746.25;4874277;28;104503;-61
2021/06/21 09:05:14;;;;;;;10.05;4.53;;;;;;;20.83;73.55;100754.53;4875746;28;102835;-61
2021/06/21 09:07:41;;;;;;;8.88;4.25;;;;;;;20.84;73.44;100753.41;4874026;28;102321;-61
2021/06/21 09:10:23;;;;;;;13.73;5.45;;;;;;;20.84;73.13;100756.19;4873257;28;102742;-61
2021/06/21 09:13:01;;;;;;;10.35;4.55;;;;;;;20.83;73.40;100760.06;4871236;28;103965;-61
2021/06/21 09:15:29;;;;;;;8.70;4.37;;;;;;;20.84;73.11;100764.47;4872838;28;102133;-61
2021/06/21 09:17:57;;;;;;;9.50;5.07;;;;;;;20.86;73.32;100767.69;4873117;28;103685;-61
2021/06/21 09:20:23;;;;;;;10.75;4.95;;;;;;;20.86;73.38;100767.69;4872452;28;102774;-61
2021/06/21 09:22:54;;;;;;;13.93;6.20;;;;;;;20.88;73.57;100764.59;4875011;28;103984;-61
2021/06/21 09:25:24;;;;;;;8.75;4.82;;;;;;;20.87;73.42;100761.00;4876118;28;103043;-61
2021/06/21 09:27:56;;;;;;;12.25;4.53;;;;;;;20.88;73.43;100762.63;4873234;28;102483;-61
2021/06/21 09:30:24;;;;;;;7.47;5.65;;;;;;;20.90;73.36;100767.00;4874919;28;102940;-61
2021/06/21 09:32:52;;;;;;;11.73;5.45;;;;;;;20.90;73.45;100761.47;4872523;28;103505;-61
2021/06/21 09:35:40;;;;;;;177.45;16.42;;;;;;;20.90;73.33;100767.00;4873087;28;102192;-60
2021/06/21 09:38:16;;;;;;;12.13;5.55;;;;;;;20.89;73.37;100749.63;4863472;28;102452;-61
2021/06/21 09:40:46;;;;;;;11.63;5.65;;;;;;;20.90;73.37;100761.47;4872017;28;102387;-61
2021/06/21 09:43:27;;;;;;;10.35;5.38;;;;;;;20.89;73.40;100763.44;4873603;28;103928;-61
2021/06/21 09:46:11;;;;;;;12.23;5.40;;;;;;;20.90;73.36;100762.28;4872900;28;102039;-61
2021/06/21 09:48:40;;;;;;;9.15;4.95;;;;;;;20.91;73.27;100763.09;4870132;28;102629;-61
2021/06/21 09:51:33;;;;;;;16.85;5.45;;;;;;;20.88;73.29;100765.41;4869550;28;102259;-61
2021/06/21 09:54:04;;;;;;;13.82;6.20;;;;;;;20.87;73.56;100761.00;4856943;28;104045;-61
2021/06/21 09:56:32;;;;;;;;;;;;;;;20.90;73.26;100767.00;4869329;28;103636;-60
2021/06/21 09:58:59;;;;;;;12.52;5.28;;;;;;;20.87;73.47;100763.75;4870966;28;102149;-61
2021/06/21 10:01:28;;;;;;;11.48;5.10;;;;;;;20.88;73.90;100759.88;4873182;28;102298;-61
2021/06/21 10:03:54;;;;;;;14.65;5.63;;;;;;;20.90;73.36;100772.53;4872164;28;103866;-61
2021/06/21 10:06:21;;;;;;;12.38;6.05;;;;;;;20.90;73.38;100756.75;4871945;28;102325;-61
2021/06/21 10:08:50;;;;;;;10.98;6.35;;;;;;;20.86;73.21;100756.63;4871061;28;102366;-61
2021/06/21 10:11:28;;;;;;;10.52;5.15;;;;;;;20.86;73.38;100751.09;4871858;28;102280;-61
2021/06/21 10:13:57;;;;;;;10.23;5.00;;;;;;;20.89;73.33;100755.16;4871283;28;103761;-60
2021/06/21 10:16:24;;;;;;;12.55;6.63;;;;;;;20.89;73.23;100755.16;4871103;28;102686;-60
2021/06/21 10:18:52;;;;;;;11.55;5.68;;;;;;;20.86;73.34;100751.09;4869400;28;102262;-60
2021/06/21 10:21:18;;;;;;;11.30;5.20;;;;;;;20.86;73.50;100755.81;4871224;28;102764;-60
2021/06/21 10:23:45;;;;;;;14.18;5.10;;;;;;;20.88;73.33;100759.88;4871453;28;104178;-60
2021/06/21 10:26:11;;;;;;;12.20;5.88;;;;;;;20.88;73.48;100753.53;4870051;28;102150;-60
2021/06/21 10:28:40;;;;;;;12.18;6.18;;;;;;;20.85;73.41;100755.03;4869697;28;103467;-60
2021/06/21 10:31:08;;;;;;;10.23;5.35;;;;;;;20.86;73.50;100756.63;4871268;28;102786;-60
2021/06/21 10:33:35;;;;;;;17.08;5.95;;;;;;;20.86;73.42;100766.88;4870835;28;104451;-60
2021/06/21 10:36:04;;;;;;;11.85;5.90;;;;;;;20.84;73.33;100764.47;4870901;28;102374;-60
2021/06/21 10:38:31;;;;;;;7.10;5.25;;;;;;;20.85;73.21;100754.22;4870703;28;102713;-60
2021/06/21 10:41:01;;;;;;;11.55;6.05;;;;;;;20.86;73.35;100762.16;4860815;28;103518;-60
2021/06/21 10:43:53;;;;;;;12.20;5.40;;;;;;;20.87;73.46;100763.75;4870142;28;103992;-60
2021/06/21 10:46:35;;;;;;;11.35;5.50;;;;;;;20.88;73.47;100765.41;4869370;28;102641;-60
2021/06/21 10:49:31;;;;;;;13.80;5.70;;;;;;;20.89;73.51;100766.22;4866537;28;102545;-60
2021/06/21 10:51:57;;;;;;;13.50;5.55;;;;;;;20.90;73.55;100767.00;4870473;28;102415;-60
2021/06/21 10:54:25;;;;;;;14.85;5.60;;;;;;;20.89;73.55;100760.69;4868769;28;104082;-59
2021/06/21 10:56:53;;;;;;;9.25;5.40;;;;;;;20.91;73.61;100768.63;4873621;28;102645;-60
2021/06/21 10:59:21;;;;;;;14.13;5.33;;;;;;;20.91;73.56;100774.16;4869974;28;102429;-59
2021/06/21 11:01:51;;;;;;;15.20;5.97;;;;;;;20.91;73.57;100761.13;4870228;28;102603;-61
2021/06/21 11:04:44;;;;;;;14.10;6.50;;;;;;;20.89;73.57;100771.75;4868949;28;103993;-60
2021/06/21 11:07:13;;;;;;;13.38;6.32;;;;;;;20.91;73.62;100768.63;4859767;28;103628;-60
2021/06/21 11:09:41;;;;;;;13.77;6.13;;;;;;;20.90;73.53;100759.53;4869071;28;102276;-60
2021/06/21 11:12:41;;;;;;;15.20;6.60;;;;;;;20.88;73.67;100759.88;4869441;28;102254;-60
2021/06/21 11:15:14;;;;;;;13.38;6.28;;;;;;;20.91;73.67;100768.63;4873653;28;103884;-61
2021/06/21 11:17:58;;;;;;;12.73;6.43;;;;;;;20.88;73.89;100759.88;4873140;28;102234;-60
2021/06/21 11:20:41;;;;;;;17.38;6.18;;;;;;;20.86;73.58;100762.16;4873360;28;101991;-61
2021/06/21 11:23:10;;;;;;;25.73;6.85;;;;;;;20.87;73.88;100762.97;4874532;28;102585;-61
2021/06/21 11:25:41;;;;;;;10.82;6.35;;;;;;;20.87;73.63;100763.75;4870960;28;103735;-60